Time;durP1;ratioP1;P1;durP2;ratioP2;P2;SDS_P1;SDS_P2;PMS_P1;PMS_P2;Temp;Humidity;BMP_temperature;BMP_pressure;BME280_temperature;BME280_humidity;BME280_pressure;Samples;Min_cycle;Max_cycle;Signal;HPM_P1;HPM_P2
2023/12/01 00:01:07;;;;;;;;;51.75;38.50;;;;;-147.47;100.00;64613.53;4897134;29;28545;-70
2023/12/01 00:03:33;;;;;;;;;49.75;37.00;;;;;-147.47;100.00;64613.53;4892569;29;30387;-70
2023/12/01 00:05:58;;;;;;;;;50.50;39.75;;;;;-147.47;100.00;64613.53;4893197;29;28345;-71
2023/12/01 00:08:23;;;;;;;;;47.50;39.00;;;;;-147.47;100.00;64613.53;4892418;29;28879;-70
2023/12/01 00:10:49;;;;;;;;;48.75;38.50;;;;;-147.47;100.00;64613.53;4891478;29;28715;-69
2023/12/01 00:13:14;;;;;;;;;54.75;43.25;;;;;-147.47;100.00;64613.53;4892665;29;28787;-71
2023/12/01 00:15:39;;;;;;;;;52.00;37.25;;;;;-147.47;100.00;64613.53;4891532;29;28520;-69
2023/12/01 00:18:05;;;;;;;;;37.75;28.25;;;;;-147.47;100.00;64613.53;4858904;29;28351;-70
2023/12/01 00:20:31;;;;;;;;;49.00;38.25;;;;;-147.47;100.00;64613.53;4884961;29;28594;-70
2023/12/01 00:22:56;;;;;;;;;52.00;40.25;;;;;-147.47;100.00;64613.53;4892810;29;28853;-70
2023/12/01 00:25:22;;;;;;;;;53.75;39.00;;;;;-147.47;100.00;64613.53;4893116;29;28479;-69
2023/12/01 00:27:47;;;;;;;;;54.75;41.00;;;;;-147.47;100.00;64613.53;4892682;29;28367;-69
2023/12/01 00:30:12;;;;;;;;;42.25;34.75;;;;;-147.47;100.00;64613.53;4892505;29;28485;-71
2023/12/01 00:32:38;;;;;;;;;50.25;38.25;;;;;-147.47;100.00;64613.53;4893055;29;28905;-71
2023/12/01 00:35:03;;;;;;;;;52.25;38.00;;;;;-147.47;100.00;64613.53;4892962;29;28413;-71
2023/12/01 00:37:30;;;;;;;;;53.25;39.75;;;;;-147.47;100.00;64613.53;4890324;29;29520;-69
2023/12/01 00:39:56;;;;;;;;;49.00;37.25;;;;;-147.47;100.00;64613.53;4892457;29;28726;-71
2023/12/01 00:42:21;;;;;;;;;43.00;34.50;;;;;-147.47;100.00;64613.53;4892348;29;28430;-68
2023/12/01 00:44:46;;;;;;;;;48.25;38.50;;;;;-147.47;100.00;64613.53;4887376;29;28495;-70
2023/12/01 00:47:12;;;;;;;;;51.50;36.25;;;;;-147.47;100.00;64613.53;4889632;29;29627;-70
2023/12/01 00:49:37;;;;;;;;;34.50;33.00;;;;;-147.47;100.00;64613.53;4876734;29;29364;-70
2023/12/01 00:52:04;;;;;;;;;55.25;39.75;;;;;-147.47;100.00;64613.53;4889425;29;28930;-71
2023/12/01 00:54:29;;;;;;;;;51.75;40.00;;;;;-147.47;100.00;64613.53;4900786;29;28436;-72
2023/12/01 00:56:55;;;;;;;;;49.00;40.00;;;;;-147.47;100.00;64613.53;4889250;29;28357;-71
2023/12/01 00:59:22;;;;;;;;;54.25;41.00;;;;;-147.47;100.00;64613.53;4875091;29;28764;-71
2023/12/01 01:01:47;;;;;;;;;53.50;42.00;;;;;-147.47;100.00;64613.53;4889770;29;28968;-70
2023/12/01 01:04:13;;;;;;;;;54.75;42.50;;;;;-147.47;100.00;64613.53;4874273;29;28825;-70
2023/12/01 01:06:38;;;;;;;;;50.50;38.75;;;;;-147.47;100.00;64613.53;4902964;29;28403;-69
2023/12/01 01:09:04;;;;;;;;;51.25;41.75;;;;;-147.47;100.00;64613.53;4884520;29;28493;-71
2023/12/01 01:11:29;;;;;;;;;37.50;35.25;;;;;-147.47;100.00;64613.53;4888147;29;28442;-70
2023/12/01 01:13:56;;;;;;;;;53.50;42.25;;;;;-147.47;100.00;64613.53;4883197;29;28781;-70
2023/12/01 01:16:22;;;;;;;;;57.50;40.75;;;;;-147.47;100.00;64613.53;4892327;29;28783;-69
2023/12/01 01:18:47;;;;;;;;;54.75;43.00;;;;;-147.47;100.00;64613.53;4885289;29;28460;-69
2023/12/01 01:21:13;;;;;;;;;55.50;41.50;;;;;-147.47;100.00;64613.53;4889993;29;28407;-70
2023/12/01 01:23:38;;;;;;;;;52.50;38.25;;;;;-147.47;100.00;64613.53;4890293;29;28439;-69
2023/12/01 01:26:04;;;;;;;;;55.75;40.25;;;;;-147.47;100.00;64613.53;4895822;29;28888;-69
2023/12/01 01:28:29;;;;;;;;;53.25;41.75;;;;;-147.47;100.00;64613.53;4875906;29;30191;-69
2023/12/01 01:30:54;;;;;;;;;52.75;41.75;;;;;-147.47;100.00;64613.53;4887025;29;28870;-69
2023/12/01 01:33:20;;;;;;;;;41.75;35.50;;;;;-147.47;100.00;64613.53;4887768;29;28463;-69
2023/12/01 01:35:45;;;;;;;;;58.25;44.00;;;;;-147.47;100.00;64613.53;4895355;29;28309;-72
2023/12/01 01:38:10;;;;;;;;;55.25;43.75;;;;;-147.47;100.00;64613.53;4884790;29;28433;-70
2023/12/01 01:40:36;;;;;;;;;56.00;43.00;;;;;-147.47;100.00;64613.53;4883546;29;30088;-70
2023/12/01 01:43:01;;;;;;;;;47.25;37.50;;;;;-147.47;100.00;64613.53;4888422;29;28487;-69
2023/12/01 01:45:26;;;;;;;;;55.50;42.75;;;;;-147.47;100.00;64613.53;4890841;29;28534;-70
2023/12/01 01:47:52;;;;;;;;;56.00;43.50;;;;;-147.47;100.00;64613.53;4884485;29;28394;-71
2023/12/01 01:50:18;;;;;;;;;58.50;44.25;;;;;-147.47;100.00;64613.53;4890603;29;28805;-69
2023/12/01 01:52:44;;;;;;;;;53.50;42.75;;;;;-147.47;100.00;64613.53;4864845;29;28738;-69
2023/12/01 01:55:12;;;;;;;;;53.00;42.00;;;;;-147.47;100.00;64613.53;4864185;29;28523;-68
2023/12/01 01:57:39;;;;;;;;;55.00;40.50;;;;;-147.47;100.00;64613.53;4881438;29;28400;-69
2023/12/01 02:00:05;;;;;;;;;59.25;44.50;;;;;-147.47;100.00;64613.53;4874885;29;29594;-69
2023/12/01 02:02:32;;;;;;;;;54.75;41.25;;;;;-147.47;100.00;64613.53;4874439;29;28439;-70
2023/12/01 02:04:57;;;;;;;;;58.50;39.25;;;;;-147.47;100.00;64613.53;4879496;29;28504;-69
2023/12/01 02:07:26;;;;;;;;;53.25;39.00;;;;;-147.47;100.00;64613.53;4881673;29;28786;-69
2023/12/01 02:09:53;;;;;;;;;56.00;42.00;;;;;-147.47;100.00;64613.53;4885530;29;28524;-69
2023/12/01 02:12:18;;;;;;;;;58.50;42.75;;;;;-147.47;100.00;64613.53;4887474;29;28537;-69
2023/12/01 02:14:43;;;;;;;;;57.50;40.00;;;;;-147.47;100.00;64613.53;4883927;29;28427;-70
2023/12/01 02:17:09;;;;;;;;;55.00;42.50;;;;;-147.47;100.00;64613.53;4867253;29;29543;-69
2023/12/01 02:19:34;;;;;;;;;53.75;42.50;;;;;-147.47;100.00;64613.53;4875092;29;28851;-69
2023/12/01 02:22:00;;;;;;;;;54.75;39.25;;;;;-147.47;100.00;64613.53;4874312;29;28328;-69
2023/12/01 02:24:25;;;;;;;;;55.75;41.25;;;;;-147.47;100.00;64613.53;4867573;29;28299;-68
2023/12/01 02:26:50;;;;;;;;;58.25;43.00;;;;;-147.47;100.00;64613.53;4863671;29;29154;-69
2023/12/01 02:29:15;;;;;;;;;55.00;39.75;;;;;-147.47;100.00;64613.53;4859150;29;30594;-71
2023/12/01 02:31:41;;;;;;;;;56.25;41.75;;;;;-147.47;100.00;64613.53;4885238;29;28517;-69
2023/12/01 02:34:06;;;;;;;;;54.00;40.50;;;;;-147.47;100.00;64613.53;4881847;29;28715;-69
2023/12/01 02:36:32;;;;;;;;;52.25;41.25;;;;;-147.47;100.00;64613.53;4890568;29;28410;-70
2023/12/01 02:38:57;;;;;;;;;56.00;43.00;;;;;-147.47;100.00;64613.53;4877495;29;29072;-69
2023/12/01 02:41:23;;;;;;;;;52.75;41.75;;;;;-147.47;100.00;64613.53;4882571;29;28732;-68
2023/12/01 02:43:48;;;;;;;;;47.75;35.75;;;;;-147.47;100.00;64613.53;4864841;29;28669;-69
2023/12/01 02:46:13;;;;;;;;;61.75;44.50;;;;;-147.47;100.00;64613.53;4862593;29;29414;-69
2023/12/01 02:48:40;;;;;;;;;53.50;42.00;;;;;-147.47;100.00;64613.53;4865758;29;29293;-70
2023/12/01 02:51:06;;;;;;;;;45.75;35.25;;;;;-147.47;100.00;64613.53;4891720;29;28585;-69
2023/12/01 02:53:32;;;;;;;;;51.25;38.50;;;;;-147.47;100.00;64613.53;4881276;29;28605;-68
2023/12/01 02:55:57;;;;;;;;;57.75;42.75;;;;;-147.47;100.00;64613.53;4858572;29;28875;-68
2023/12/01 02:58:24;;;;;;;;;51.25;37.00;;;;;-147.47;100.00;64613.53;4888307;29;28792;-71
2023/12/01 03:00:49;;;;;;;;;57.00;43.75;;;;;-147.47;100.00;64613.53;4853608;29;28797;-68
2023/12/01 03:03:14;;;;;;;;;56.75;40.75;;;;;-147.47;100.00;64613.53;4856349;29;28422;-69
2023/12/01 03:05:40;;;;;;;;;51.25;41.50;;;;;-147.47;100.00;64613.53;4870791;29;28419;-69
2023/12/01 03:08:05;;;;;;;;;44.25;38.50;;;;;-147.47;100.00;64613.53;4880439;29;29247;-69
2023/12/01 03:10:31;;;;;;;;;55.00;36.25;;;;;-147.47;100.00;64613.53;4884225;29;28415;-69
2023/12/01 03:12:56;;;;;;;;;49.50;39.00;;;;;-147.47;100.00;64613.53;4888850;29;28459;-69
2023/12/01 03:15:21;;;;;;;;;51.00;38.25;;;;;-147.47;100.00;64613.53;4876328;29;28428;-68
2023/12/01 03:17:48;;;;;;;;;52.50;36.75;;;;;-147.47;100.00;64613.53;4861676;29;29632;-69
2023/12/01 03:20:14;;;;;;;;;58.25;43.50;;;;;-147.47;100.00;64613.53;4874573;29;28869;-67
2023/12/01 03:22:42;;;;;;;;;55.00;40.00;;;;;-147.47;100.00;64613.53;4874242;29;29002;-69
2023/12/01 03:25:09;;;;;;;;;43.00;35.75;;;;;-147.47;100.00;64613.53;4865946;29;30200;-68
2023/12/01 03:27:46;;;;;;;;;50.00;38.00;;;;;-147.47;100.00;64613.53;4877362;29;28810;-68
2023/12/01 03:30:18;;;;;;;;;50.50;39.25;;;;;-147.47;100.00;64613.53;4876719;29;28590;-68
2023/12/01 03:32:44;;;;;;;;;56.75;43.00;;;;;-147.47;100.00;64613.53;4876314;29;28491;-69
2023/12/01 03:35:17;;;;;;;;;56.75;40.50;;;;;-147.47;100.00;64613.53;4883775;29;28678;-68
2023/12/01 03:37:45;;;;;;;;;47.00;39.50;;;;;-147.47;100.00;64613.53;4889051;29;28508;-69
2023/12/01 03:40:12;;;;;;;;;53.75;42.75;;;;;-147.47;100.00;64613.53;4891110;29;28463;-68
2023/12/01 03:42:41;;;;;;;;;48.75;37.00;;;;;-147.47;100.00;64613.53;4885741;29;28448;-69
2023/12/01 03:45:10;;;;;;;;;51.25;36.75;;;;;-147.47;100.00;64613.53;4859902;29;29858;-68
2023/12/01 03:47:36;;;;;;;;;54.50;41.75;;;;;-147.47;100.00;64613.53;4876302;29;28718;-67
2023/12/01 03:50:03;;;;;;;;;57.75;40.75;;;;;-147.47;100.00;64613.53;4874552;29;28804;-69
2023/12/01 03:52:29;;;;;;;;;55.25;38.50;;;;;-147.47;100.00;64613.53;4892744;29;28935;-69
2023/12/01 03:54:55;;;;;;;;;53.75;41.75;;;;;-147.47;100.00;64613.53;4883455;29;29057;-69
2023/12/01 03:57:20;;;;;;;;;54.00;43.50;;;;;-147.47;100.00;64613.53;4893232;29;28442;-69
2023/12/01 03:59:45;;;;;;;;;56.50;43.00;;;;;-147.47;100.00;64613.53;4885149;29;29117;-68
2023/12/01 04:02:11;;;;;;;;;58.00;42.00;;;;;-147.47;100.00;64613.53;4891864;29;28654;-68
2023/12/01 04:04:37;;;;;;;;;46.25;37.00;;;;;-147.47;100.00;64613.53;4873380;29;30433;-68
2023/12/01 04:07:07;;;;;;;;;55.00;38.50;;;;;-147.47;100.00;64613.53;4891813;29;28469;-68
2023/12/01 04:09:33;;;;;;;;;57.00;40.00;;;;;-147.47;100.00;64613.53;4890107;29;28543;-68
2023/12/01 04:11:58;;;;;;;;;60.75;45.00;;;;;-147.47;100.00;64613.53;4892258;29;28422;-70
2023/12/01 04:14:23;;;;;;;;;51.50;39.50;;;;;-147.47;100.00;64613.53;4891314;29;28549;-67
2023/12/01 04:16:49;;;;;;;;;52.50;41.75;;;;;-147.47;100.00;64613.53;4875067;29;29409;-69
2023/12/01 04:19:14;;;;;;;;;53.00;41.50;;;;;-147.47;100.00;64613.53;4875210;29;28915;-67
2023/12/01 04:21:39;;;;;;;;;54.75;43.75;;;;;-147.47;100.00;64613.53;4875149;29;28794;-67
2023/12/01 04:24:06;;;;;;;;;60.50;43.00;;;;;-147.47;100.00;64613.53;4896022;29;28813;-68
2023/12/01 04:26:32;;;;;;;;;51.50;40.00;;;;;-147.47;100.00;64613.53;4892712;29;28516;-68
2023/12/01 04:28:57;;;;;;;;;56.50;43.00;;;;;-147.47;100.00;64613.53;4892602;29;28416;-69
2023/12/01 04:31:23;;;;;;;;;53.75;40.75;;;;;-147.47;100.00;64613.53;4887348;29;28735;-68
2023/12/01 04:33:48;;;;;;;;;51.50;41.25;;;;;-147.47;100.00;64613.53;4887882;29;28541;-69
2023/12/01 04:36:14;;;;;;;;;55.50;42.50;;;;;-147.47;100.00;64613.53;4890371;29;28390;-69
2023/12/01 04:38:39;;;;;;;;;58.75;44.00;;;;;-147.47;100.00;64613.53;4886148;29;28446;-68
2023/12/01 04:41:09;;;;;;;;;58.75;43.50;;;;;-147.47;100.00;64613.53;4888258;29;28949;-70
2023/12/01 04:43:37;;;;;;;;;57.00;44.50;;;;;-147.47;100.00;64613.53;4890655;29;28700;-69
2023/12/01 04:46:03;;;;;;;;;53.75;42.75;;;;;-147.47;100.00;64613.53;4886092;29;29843;-69
2023/12/01 04:48:28;;;;;;;;;52.50;40.75;;;;;-147.47;100.00;64613.53;4892069;29;28542;-69
2023/12/01 04:50:54;;;;;;;;;57.00;42.50;;;;;-147.47;100.00;64613.53;4889808;29;28627;-67
2023/12/01 04:53:19;;;;;;;;;55.00;41.50;;;;;-147.47;100.00;64613.53;4892731;29;28589;-68
2023/12/01 04:55:46;;;;;;;;;64.25;47.50;;;;;-147.47;100.00;64613.53;4886930;29;28352;-69
2023/12/01 04:58:12;;;;;;;;;57.00;46.00;;;;;-147.47;100.00;64613.53;4889320;29;28907;-70
2023/12/01 05:00:37;;;;;;;;;59.50;45.00;;;;;-147.47;100.00;64613.53;4890716;29;28603;-69
2023/12/01 05:03:05;;;;;;;;;60.25;39.75;;;;;-147.47;100.00;64613.53;4891412;29;29075;-68
2023/12/01 05:05:35;;;;;;;;;59.25;44.25;;;;;-147.47;100.00;64613.53;4891325;29;28597;-68
2023/12/01 05:08:07;;;;;;;;;58.50;45.75;;;;;-147.47;100.00;64613.53;4873879;29;28944;-69
2023/12/01 05:10:34;;;;;;;;;58.00;41.50;;;;;-147.47;100.00;64613.53;4870400;29;28729;-69
2023/12/01 05:13:02;;;;;;;;;58.75;45.25;;;;;-147.47;100.00;64613.53;4889206;29;29624;-68
2023/12/01 05:15:30;;;;;;;;;59.25;43.50;;;;;-147.47;100.00;64613.53;4886209;29;29109;-68
2023/12/01 05:18:00;;;;;;;;;66.75;46.25;;;;;-147.47;100.00;64613.53;4886561;29;28445;-67
2023/12/01 05:20:27;;;;;;;;;51.75;38.50;;;;;-147.47;100.00;64613.53;4888492;29;28614;-68
2023/12/01 05:22:57;;;;;;;;;56.00;37.00;;;;;-147.47;100.00;64613.53;4867305;29;28606;-70
2023/12/01 05:25:25;;;;;;;;;59.00;43.50;;;;;-147.47;100.00;64613.53;4871053;29;28647;-69
2023/12/01 05:27:59;;;;;;;;;57.50;42.25;;;;;-147.47;100.00;64613.53;4874483;29;28922;-70
2023/12/01 05:30:30;;;;;;;;;58.75;46.50;;;;;-147.47;100.00;64613.53;4876575;29;28501;-68
2023/12/01 05:32:58;;;;;;;;;72.75;52.25;;;;;-147.47;100.00;64613.53;4873886;29;28485;-68
2023/12/01 05:35:25;;;;;;;;;58.75;45.00;;;;;-147.47;100.00;64613.53;4889538;29;30265;-68
2023/12/01 05:37:55;;;;;;;;;58.75;43.75;;;;;-147.47;100.00;64613.53;4889935;29;28795;-68
2023/12/01 05:40:29;;;;;;;;;61.25;47.50;;;;;-147.47;100.00;64613.53;4869791;29;28904;-69
2023/12/01 05:42:57;;;;;;;;;50.25;38.50;;;;;-147.47;100.00;64613.53;4884767;29;28915;-69
2023/12/01 05:45:24;;;;;;;;;59.25;44.75;;;;;-147.47;100.00;64613.53;4870309;29;28588;-69
2023/12/01 05:47:52;;;;;;;;;53.50;38.00;;;;;-147.47;100.00;64613.53;4890188;29;29023;-70
2023/12/01 05:50:28;;;;;;;;;56.25;42.00;;;;;-147.47;100.00;64613.53;4884201;29;28501;-70
2023/12/01 05:52:56;;;;;;;;;46.75;37.00;;;;;-147.47;100.00;64613.53;4886877;29;28538;-70
2023/12/01 05:55:23;;;;;;;;;63.50;45.25;;;;;-147.47;100.00;64613.53;4873081;29;29215;-69
2023/12/01 05:57:58;;;;;;;;;53.75;42.25;;;;;-147.47;100.00;64613.53;4888812;29;28922;-69
2023/12/01 06:00:29;;;;;;;;;62.00;45.50;;;;;-147.47;100.00;64613.53;4885862;29;28715;-69
2023/12/01 06:03:02;;;;;;;;;61.50;46.00;;;;;-147.47;100.00;64613.53;4883876;29;29056;-71
2023/12/01 06:05:28;;;;;;;;;62.00;46.50;;;;;-147.47;100.00;64613.53;4884690;29;28623;-69
2023/12/01 06:07:56;;;;;;;;;61.50;43.75;;;;;-147.47;100.00;64613.53;4887691;29;29068;-69
2023/12/01 06:10:24;;;;;;;;;50.25;40.25;;;;;-147.47;100.00;64613.53;4886106;29;28850;-69
2023/12/01 06:12:50;;;;;;;;;56.25;43.25;;;;;-147.47;100.00;64613.53;4888291;29;28521;-68
2023/12/01 06:15:17;;;;;;;;;63.50;47.00;;;;;-147.47;100.00;64613.53;4885391;29;28903;-69
2023/12/01 06:17:51;;;;;;;;;62.25;45.50;;;;;-147.47;100.00;64613.53;4888285;29;28623;-72
2023/12/01 06:20:19;;;;;;;;;59.50;44.50;;;;;-147.47;100.00;64613.53;4886042;29;28655;-68
2023/12/01 06:22:47;;;;;;;;;61.25;47.50;;;;;-147.47;100.00;64613.53;4873239;29;28880;-70
2023/12/01 06:25:13;;;;;;;;;59.25;44.25;;;;;-147.47;100.00;64613.53;4872557;29;30048;-68
2023/12/01 06:27:40;;;;;;;;;64.75;47.25;;;;;-147.47;100.00;64613.53;4875306;29;28887;-70
2023/12/01 06:30:11;;;;;;;;;63.00;47.00;;;;;-147.47;100.00;64613.53;4893222;29;28838;-70
2023/12/01 06:32:41;;;;;;;;;56.25;45.00;;;;;-147.47;100.00;64613.53;4865480;29;30588;-69
2023/12/01 06:35:11;;;;;;;;;62.75;46.50;;;;;-147.47;100.00;64613.53;4893932;29;28829;-70
2023/12/01 06:37:36;;;;;;;;;66.00;47.00;;;;;-147.47;100.00;64613.53;4877165;29;28822;-70
2023/12/01 06:40:11;;;;;;;;;63.00;48.75;;;;;-147.47;100.00;64613.53;4894618;29;28830;-70
2023/12/01 06:42:58;;;;;;;;;63.25;46.00;;;;;-147.47;100.00;64613.53;4894192;29;28522;-69
2023/12/01 06:45:28;;;;;;;;;48.25;39.25;;;;;-147.47;100.00;64613.53;4892567;29;28589;-72
2023/12/01 06:47:55;;;;;;;;;66.75;47.75;;;;;-147.47;100.00;64613.53;4877845;29;28630;-69
2023/12/01 06:50:24;;;;;;;;;63.50;42.75;;;;;-147.47;100.00;64613.53;4898162;29;28698;-70
2023/12/01 06:52:51;;;;;;;;;59.25;45.00;;;;;-147.47;100.00;64613.53;4894673;29;28453;-68
2023/12/01 06:55:16;;;;;;;;;59.25;46.75;;;;;-147.47;100.00;64613.53;4877457;29;29929;-70
2023/12/01 06:57:43;;;;;;;;;58.25;42.75;;;;;-147.47;100.00;64613.53;4892643;29;28396;-68
2023/12/01 07:00:21;;;;;;;;;59.25;44.75;;;;;-147.47;100.00;64613.53;4894341;29;28465;-69
2023/12/01 07:02:48;;;;;;;;;62.00;46.75;;;;;-147.47;100.00;64613.53;4889662;29;28540;-70
2023/12/01 07:05:19;;;;;;;;;62.00;42.25;;;;;-147.47;100.00;64613.53;4893921;29;28616;-70
2023/12/01 07:07:45;;;;;;;;;65.00;45.75;;;;;-147.47;100.00;64613.53;4894536;29;28931;-68
2023/12/01 07:10:10;;;;;;;;;56.75;44.50;;;;;-147.47;100.00;64613.53;4893376;29;27926;-68
2023/12/01 07:12:36;;;;;;;;;62.75;44.25;;;;;-147.47;100.00;64613.53;4888388;29;28384;-67
2023/12/01 07:15:02;;;;;;;;;58.50;44.50;;;;;-147.47;100.00;64613.53;4892902;29;28568;-67
2023/12/01 07:17:28;;;;;;;;;67.50;48.25;;;;;-147.47;100.00;64613.53;4894706;29;28870;-67
2023/12/01 07:19:54;;;;;;;;;56.75;43.25;;;;;-147.47;100.00;64613.53;4894956;29;28509;-66
2023/12/01 07:22:22;;;;;;;;;54.25;41.00;;;;;-147.47;100.00;64613.53;4894551;29;28936;-67
2023/12/01 07:24:48;;;;;;;;;60.25;43.50;;;;;-147.47;100.00;64613.53;4892247;29;30038;-67
2023/12/01 07:27:14;;;;;;;;;63.00;44.75;;;;;-147.47;100.00;64613.53;4895876;29;28414;-69
2023/12/01 07:29:40;;;;;;;;;64.00;46.75;;;;;-147.47;100.00;64613.53;4893916;29;28796;-68
2023/12/01 07:32:06;;;;;;;;;59.25;41.25;;;;;-147.47;100.00;64613.53;4891254;29;29179;-68
2023/12/01 07:34:32;;;;;;;;;60.75;41.25;;;;;-147.47;100.00;64613.53;4893583;29;28505;-68
2023/12/01 07:37:01;;;;;;;;;67.75;50.25;;;;;-147.47;100.00;64613.53;4892168;29;29030;-65
2023/12/01 07:39:26;;;;;;;;;64.25;42.00;;;;;-147.47;100.00;64613.53;4876421;29;28521;-68
2023/12/01 07:41:51;;;;;;;;;61.50;45.00;;;;;-147.47;100.00;64613.53;4893876;29;28438;-69
2023/12/01 07:44:17;;;;;;;;;56.50;41.75;;;;;-147.47;100.00;64613.53;4876004;29;28454;-69
2023/12/01 07:46:43;;;;;;;;;63.75;44.50;;;;;-147.47;100.00;64613.53;4890751;29;28398;-68
2023/12/01 07:49:11;;;;;;;;;58.50;42.50;;;;;-147.47;100.00;64613.53;4892258;29;29031;-70
2023/12/01 07:51:37;;;;;;;;;61.00;45.25;;;;;-147.47;100.00;64613.53;4896605;29;28748;-66
2023/12/01 07:54:02;;;;;;;;;63.50;47.25;;;;;-147.47;100.00;64613.53;4891940;29;29154;-66
2023/12/01 07:56:28;;;;;;;;;60.75;46.00;;;;;-147.47;100.00;64613.53;4876739;29;28611;-69
2023/12/01 07:58:53;;;;;;;;;63.75;45.00;;;;;-147.47;100.00;64613.53;4891758;29;28872;-66
2023/12/01 08:01:19;;;;;;;;;58.75;44.75;;;;;-147.47;100.00;64613.53;4893796;29;29054;-68
2023/12/01 08:03:47;;;;;;;;;57.00;44.25;;;;;-147.47;100.00;64613.53;4892768;29;28508;-71
2023/12/01 08:06:16;;;;;;;;;51.25;42.75;;;;;-147.47;100.00;64613.53;4900354;29;28478;-68
2023/12/01 08:08:41;;;;;;;;;63.00;47.00;;;;;-147.47;100.00;64613.53;4891792;29;28842;-67
2023/12/01 08:11:07;;;;;;;;;61.25;43.50;;;;;-147.47;100.00;64613.53;4891776;29;28485;-67
2023/12/01 08:13:32;;;;;;;;;59.00;45.50;;;;;-147.47;100.00;64613.53;4894962;29;29364;-68
2023/12/01 08:15:59;;;;;;;;;59.00;43.50;;;;;-147.47;100.00;64613.53;4892636;29;28561;-70
2023/12/01 08:18:25;;;;;;;;;34.00;32.00;;;;;-147.47;100.00;64613.53;5028899;23;28546;-82
2023/12/01 08:21:26;;;;;;;;;60.50;46.00;;;;;-147.47;100.00;64613.53;4913791;29;28010;-82
2023/12/01 08:23:56;;;;;;;;;62.50;44.75;;;;;-147.47;100.00;64613.53;4898054;29;28206;-81
2023/12/01 08:26:23;;;;;;;;;51.25;42.75;;;;;-147.47;100.00;64613.53;4897437;29;28800;-85
2023/12/01 08:28:49;;;;;;;;;57.25;40.00;;;;;-147.47;100.00;64613.53;4907583;29;27874;-82
2023/12/01 08:31:18;;;;;;;;;61.75;46.75;;;;;-147.47;100.00;64613.53;4899747;29;29354;-81
2023/12/01 08:33:57;;;;;;;;;66.75;46.00;;;;;-147.47;100.00;64613.53;4997319;23;29838;-83
2023/12/01 08:36:23;;;;;;;;;56.50;43.00;;;;;-147.47;100.00;64613.53;4875916;29;28651;-83
2023/12/01 08:38:49;;;;;;;;;63.25;45.25;;;;;-147.47;100.00;64613.53;4872718;29;28464;-84
2023/12/01 08:41:15;;;;;;;;;55.00;40.75;;;;;-147.47;100.00;64613.53;4898991;29;28633;-83
2023/12/01 08:43:54;;;;;;;;;66.00;48.50;;;;;-147.47;100.00;64613.53;4892371;29;28572;-82
2023/12/01 08:46:21;;;;;;;;;62.25;46.75;;;;;-147.47;100.00;64613.53;4911238;29;28546;-82
2023/12/01 08:48:48;;;;;;;;;59.25;42.00;;;;;-147.47;100.00;64613.53;4887130;29;27907;-83
2023/12/01 08:51:14;;;;;;;;;57.25;42.00;;;;;-147.47;100.00;64613.53;4889255;29;27997;-83
2023/12/01 08:53:41;;;;;;;;;58.50;45.00;;;;;-147.47;100.00;64613.53;4885935;29;28504;-82
2023/12/01 08:56:09;;;;;;;;;60.50;42.50;;;;;-147.47;100.00;64613.53;4872753;29;28490;-83
2023/12/01 08:58:43;;;;;;;;;60.00;42.25;;;;;-147.47;100.00;64613.53;4901572;29;27961;-84
2023/12/01 09:01:11;;;;;;;;;62.50;45.50;;;;;-147.47;100.00;64613.53;4897609;29;28455;-83
2023/12/01 09:03:37;;;;;;;;;57.00;42.25;;;;;-147.47;100.00;64613.53;4881319;29;28723;-83
2023/12/01 09:06:07;;;;;;;;;53.75;39.25;;;;;-147.47;100.00;64613.53;4875654;29;28525;-81
2023/12/01 09:08:36;;;;;;;;;54.50;43.50;;;;;-147.47;100.00;64613.53;4879957;29;27867;-83
2023/12/01 09:11:04;;;;;;;;;51.00;36.50;;;;;-147.47;100.00;64613.53;4879344;29;27959;-82
2023/12/01 09:13:36;;;;;;;;;57.75;42.25;;;;;-147.47;100.00;64613.53;4863540;29;28488;-84
2023/12/01 09:16:02;;;;;;;;;55.75;43.50;;;;;-147.47;100.00;64613.53;4895068;29;28665;-84
2023/12/01 09:18:29;;;;;;;;;48.25;34.50;;;;;-147.47;100.00;64613.53;4892480;29;28527;-82
2023/12/01 09:20:57;;;;;;;;;55.75;43.00;;;;;-147.47;100.00;64613.53;4905604;29;28867;-82
2023/12/01 09:23:23;;;;;;;;;64.25;48.00;;;;;-147.47;100.00;64613.53;4877241;29;29964;-81
2023/12/01 09:25:52;;;;;;;;;50.25;38.25;;;;;-147.47;100.00;64613.53;4897343;29;27822;-81
2023/12/01 09:28:18;;;;;;;;;61.50;45.50;;;;;-147.47;100.00;64613.53;4901508;29;27882;-81
2023/12/01 09:30:43;;;;;;;;;53.50;35.25;;;;;-147.47;100.00;64613.53;4902617;29;27897;-82
2023/12/01 09:33:09;;;;;;;;;62.50;47.25;;;;;-147.47;100.00;64613.53;4884479;29;29299;-80
2023/12/01 09:35:35;;;;;;;;;64.25;46.25;;;;;-147.47;100.00;64613.53;4889253;29;28432;-82
2023/12/01 09:38:00;;;;;;;;;59.25;45.00;;;;;-147.47;100.00;64613.53;4884480;29;28432;-80
2023/12/01 09:40:26;;;;;;;;;56.50;40.75;;;;;-147.47;100.00;64613.53;4875038;29;29547;-82
2023/12/01 09:42:53;;;;;;;;;59.75;43.75;;;;;-147.47;100.00;64613.53;4886774;29;28497;-82
2023/12/01 09:45:21;;;;;;;;;61.00;45.25;;;;;-147.47;100.00;64613.53;4890783;29;28412;-81
2023/12/01 09:47:51;;;;;;;;;57.50;44.00;;;;;-147.47;100.00;64613.53;4886873;29;28641;-81
2023/12/01 09:50:18;;;;;;;;;61.00;41.75;;;;;-147.47;100.00;64613.53;4891802;29;28693;-80
2023/12/01 09:52:43;;;;;;;;;58.75;43.00;;;;;-147.47;100.00;64613.53;4886005;29;30098;-81
2023/12/01 09:55:09;;;;;;;;;60.50;42.25;;;;;-147.47;100.00;64613.53;4884995;29;28141;-82
2023/12/01 09:57:35;;;;;;;;;57.50;37.75;;;;;-147.47;100.00;64613.53;4885423;29;28591;-83
2023/12/01 10:00:00;;;;;;;;;53.25;40.25;;;;;-147.47;100.00;64613.53;4893787;29;28842;-83
2023/12/01 10:02:27;;;;;;;;;51.75;37.75;;;;;-147.47;100.00;64613.53;4901830;29;28727;-84
2023/12/01 10:05:13;;;;;;;;;62.50;40.00;;;;;-147.47;100.00;64613.53;4898537;29;28837;-82
2023/12/01 10:07:39;;;;;;;;;48.00;31.75;;;;;-147.47;100.00;64613.53;4896791;29;28116;-83
2023/12/01 10:10:20;;;;;;;;;44.00;37.25;;;;;-147.47;100.00;64613.53;4898146;29;29103;-83
2023/12/01 10:12:54;;;;;;;;;51.00;39.25;;;;;-147.47;100.00;64613.53;4875913;29;29711;-82
2023/12/01 10:15:21;;;;;;;;;60.50;43.25;;;;;-147.47;100.00;64613.53;4885069;29;28467;-82
2023/12/01 10:17:46;;;;;;;;;53.50;40.50;;;;;-147.47;100.00;64613.53;4880153;29;28066;-81
2023/12/01 10:20:18;;;;;;;;;56.75;42.75;;;;;-147.47;100.00;64613.53;4881280;29;29006;-81
2023/12/01 10:22:44;;;;;;;;;56.25;43.50;;;;;-147.47;100.00;64613.53;4884391;29;30077;-81
2023/12/01 10:25:12;;;;;;;;;58.50;43.00;;;;;-147.47;100.00;64613.53;4888874;29;28936;-81
2023/12/01 10:27:39;;;;;;;;;57.50;41.50;;;;;-147.47;100.00;64613.53;4889410;29;28556;-83
2023/12/01 10:30:14;;;;;;;;;60.75;42.50;;;;;-147.47;100.00;64613.53;4889962;29;29348;-83
2023/12/01 10:32:43;;;;;;;;;41.75;33.50;;;;;-147.47;100.00;64613.53;4887745;29;28542;-84
2023/12/01 10:35:09;;;;;;;;;47.25;38.75;;;;;-147.47;100.00;64613.53;4887109;29;28929;-81
2023/12/01 10:37:37;;;;;;;;;51.75;41.00;;;;;-147.47;100.00;64613.53;4892317;29;28282;-81
2023/12/01 10:40:07;;;;;;;;;55.75;37.75;;;;;-147.47;100.00;64613.53;4886188;29;28620;-81
2023/12/01 10:42:36;;;;;;;;;56.50;43.00;;;;;-147.47;100.00;64613.53;4874741;29;30349;-80
2023/12/01 10:45:03;;;;;;;;;58.25;40.75;;;;;-147.47;100.00;64613.53;4887124;29;28574;-82
2023/12/01 10:48:00;;;;;;;;;58.75;39.75;;;;;-147.47;100.00;64613.53;4879585;29;28471;-76
2023/12/01 10:50:27;;;;;;;;;55.25;41.25;;;;;-147.47;100.00;64613.53;4877493;29;29139;-78
2023/12/01 10:52:56;;;;;;;;;53.25;40.00;;;;;-147.47;100.00;64613.53;4875348;29;30337;-76
2023/12/01 10:55:21;;;;;;;;;51.75;39.00;;;;;-147.47;100.00;64613.53;4881626;29;29328;-76